createdAt,value
2022-11-29T00:01:30.618Z,102108.78
2022-11-29T00:03:57.380Z,102105.25
2022-11-29T00:06:27.055Z,102099.91
2022-11-29T00:08:55.714Z,102100.47
2022-11-29T00:11:25.205Z,102045.66
2022-11-29T00:13:51.613Z,102092.00
2022-11-29T00:16:18.105Z,102101.44
2022-11-29T00:18:44.598Z,102088.38
2022-11-29T00:21:11.027Z,102108.78
2022-11-29T00:23:37.460Z,102070.97
2022-11-29T00:26:06.379Z,102120.97
2022-11-29T00:28:34.039Z,102119.88
2022-11-29T00:31:00.692Z,102090.47
2022-11-29T00:33:27.181Z,102111.59
2022-11-29T00:35:53.594Z,102119.09
2022-11-29T00:38:20.035Z,102111.19
2022-11-29T00:40:51.241Z,102062.16
2022-11-29T00:43:17.648Z,102100.00
2022-11-29T00:45:44.095Z,102095.25
2022-11-29T00:48:10.573Z,102051.38
2022-11-29T00:50:37.061Z,102091.97
2022-11-29T00:53:03.470Z,102095.41
2022-11-29T00:55:29.933Z,102098.38
2022-11-29T00:57:56.330Z,102093.63
2022-11-29T01:00:22.875Z,102115.56
2022-11-29T01:02:49.310Z,102106.03
2022-11-29T01:05:15.846Z,102067.47
2022-11-29T01:07:42.298Z,102094.44
2022-11-29T01:10:09.337Z,102093.06
2022-11-29T01:12:39.667Z,102088.56
2022-11-29T01:15:07.911Z,102035.28
2022-11-29T01:17:39.060Z,102086.41
2022-11-29T01:20:09.082Z,102091.03
2022-11-29T01:22:36.076Z,102086.56
2022-11-29T01:25:02.832Z,102039.94
2022-11-29T01:27:29.559Z,102081.63
2022-11-29T01:29:56.012Z,102037.88
2022-11-29T01:32:22.528Z,102030.66
2022-11-29T01:34:48.956Z,102073.47
2022-11-29T01:37:15.527Z,102084.50
2022-11-29T01:39:42.146Z,102069.38
2022-11-29T01:42:12.973Z,102018.69
2022-11-29T01:44:39.471Z,102022.22
2022-11-29T01:47:05.917Z,102066.34
2022-11-29T01:49:55.969Z,102063.50
2022-11-29T01:52:25.780Z,102022.88
2022-11-29T01:54:56.524Z,102062.53
2022-11-29T01:57:23.840Z,102049.41
2022-11-29T01:59:56.699Z,102053.81
2022-11-29T02:02:43.216Z,102056.34
2022-11-29T02:05:12.226Z,102066.41
2022-11-29T02:07:38.820Z,102056.81
2022-11-29T02:10:07.052Z,102066.25
2022-11-29T02:12:56.623Z,102073.75
2022-11-29T02:15:33.349Z,102076.19
2022-11-29T02:18:06.344Z,102030.00
2022-11-29T02:20:51.620Z,102075.47
2022-11-29T02:23:23.804Z,102106.88
2022-11-29T02:25:59.251Z,102065.88
2022-11-29T02:28:37.551Z,102125.31
2022-11-29T02:31:39.180Z,102152.59
2022-11-29T02:34:43.214Z,102174.63
2022-11-29T02:37:47.522Z,102176.63
2022-11-29T02:40:39.052Z,102186.16
2022-11-29T02:43:13.004Z,102176.56
2022-11-29T02:46:21.412Z,102198.78
2022-11-29T02:49:00.035Z,102214.06
2022-11-29T02:51:41.352Z,102224.78
2022-11-29T02:54:13.482Z,102237.06
2022-11-29T02:56:58.164Z,102237.00
2022-11-29T02:59:27.193Z,102244.28
2022-11-29T03:02:19.841Z,102256.13
2022-11-29T03:05:10.405Z,102227.41
2022-11-29T03:07:37.013Z,102298.38
2022-11-29T03:10:08.843Z,102299.84
2022-11-29T03:12:46.665Z,102294.13
2022-11-29T03:15:25.055Z,102310.28
2022-11-29T03:18:25.619Z,102342.72
2022-11-29T03:21:24.403Z,102363.41
2022-11-29T03:23:55.376Z,102343.50
2022-11-29T03:26:30.405Z,102390.09
2022-11-29T03:29:06.502Z,102372.97
2022-11-29T03:31:56.964Z,102410.13
2022-11-29T03:34:38.519Z,102445.88
2022-11-29T03:37:28.760Z,102430.81
2022-11-29T03:40:21.120Z,102441.41
2022-11-29T03:43:04.091Z,102383.22
2022-11-29T03:45:33.439Z,102425.81
2022-11-29T03:48:07.804Z,102431.56
2022-11-29T03:50:50.607Z,102433.09
2022-11-29T03:53:32.623Z,102407.16
2022-11-29T03:56:01.699Z,102454.81
2022-11-29T03:58:39.181Z,102445.91
2022-11-29T04:01:35.354Z,102474.78
2022-11-29T04:04:23.263Z,102479.16
2022-11-29T04:07:04.989Z,102438.75
2022-11-29T04:09:48.748Z,102498.41
2022-11-29T04:12:34.034Z,102514.81
2022-11-29T04:15:33.861Z,102501.78
2022-11-29T04:18:37.124Z,102474.06
2022-11-29T04:21:09.341Z,102509.97
2022-11-29T04:24:10.921Z,102509.63
2022-11-29T04:27:07.035Z,102573.16
2022-11-29T04:29:50.177Z,102603.44
2022-11-29T04:32:54.277Z,102616.63
2022-11-29T04:35:43.003Z,102582.06
2022-11-29T04:38:18.605Z,102603.97
2022-11-29T04:41:02.920Z,102580.59
2022-11-29T04:44:02.489Z,102552.31
2022-11-29T04:46:36.607Z,102603.84
2022-11-29T04:49:05.755Z,102567.97
2022-11-29T04:51:47.250Z,102623.81
2022-11-29T04:54:39.969Z,102632.22
2022-11-29T04:57:14.075Z,102620.66
2022-11-29T04:59:54.015Z,102634.78
2022-11-29T05:02:55.894Z,102656.69
2022-11-29T05:05:37.576Z,102645.06
2022-11-29T05:08:22.667Z,102664.97
2022-11-29T05:11:18.855Z,102678.25
2022-11-29T05:13:57.742Z,102685.56
2022-11-29T05:16:36.941Z,102641.50
2022-11-29T05:19:20.478Z,102701.63
2022-11-29T05:22:00.933Z,102687.91
2022-11-29T05:24:59.848Z,102692.44
2022-11-29T05:28:10.211Z,102727.31
2022-11-29T05:31:18.564Z,102753.59
2022-11-29T05:33:45.004Z,102726.66
2022-11-29T05:36:32.968Z,102761.97
2022-11-29T05:39:29.226Z,102732.47
2022-11-29T05:42:49.839Z,102804.38
2022-11-29T05:45:40.818Z,102775.78
2022-11-29T05:48:44.911Z,102828.22
2022-11-29T05:51:29.398Z,102834.09
2022-11-29T05:54:08.215Z,102844.13
2022-11-29T05:56:40.608Z,102772.47
2022-11-29T05:59:17.805Z,102817.88
2022-11-29T06:01:53.206Z,102836.97
2022-11-29T06:04:27.818Z,102849.47
2022-11-29T06:07:06.755Z,102888.72
2022-11-29T06:09:47.664Z,102933.50
2022-11-29T06:12:21.229Z,102908.25
2022-11-29T06:15:04.308Z,102967.66
2022-11-29T06:17:39.599Z,102926.28
2022-11-29T06:20:30.768Z,102949.69
2022-11-29T06:23:15.450Z,102927.34
2022-11-29T06:26:06.594Z,102913.94
2022-11-29T06:28:59.493Z,102861.00
2022-11-29T06:31:55.700Z,102927.72
2022-11-29T06:34:33.169Z,102860.41
2022-11-29T06:37:31.490Z,102927.09
2022-11-29T06:39:58.066Z,102912.59
2022-11-29T06:42:24.473Z,102921.84
2022-11-29T06:44:51.127Z,102923.69
2022-11-29T06:47:46.970Z,102943.63
2022-11-29T06:50:22.518Z,102949.06
2022-11-29T06:53:05.675Z,102937.84
2022-11-29T06:55:38.059Z,102930.91
2022-11-29T06:58:13.648Z,102959.19
2022-11-29T07:01:10.747Z,102969.66
2022-11-29T07:04:01.788Z,102982.66
2022-11-29T07:06:29.502Z,102946.38
2022-11-29T07:09:12.848Z,102909.78
2022-11-29T07:11:39.936Z,102970.97
2022-11-29T07:14:06.666Z,102926.47
2022-11-29T07:16:40.146Z,102951.13
2022-11-29T07:19:16.476Z,102932.50
2022-11-29T07:22:06.843Z,102980.06
2022-11-29T07:24:51.898Z,102988.47
2022-11-29T07:27:33.228Z,102995.41
2022-11-29T07:30:13.777Z,102990.06
2022-11-29T07:32:50.180Z,102991.38
2022-11-29T07:35:29.144Z,103009.19
2022-11-29T07:38:09.417Z,102961.75
2022-11-29T07:40:56.967Z,103033.56
2022-11-29T07:43:51.392Z,103050.16
2022-11-29T07:46:17.845Z,103002.28
2022-11-29T07:48:44.320Z,102997.13
2022-11-29T07:51:10.992Z,103038.03
2022-11-29T07:53:41.915Z,103058.72
2022-11-29T07:56:08.688Z,103069.66
2022-11-29T07:58:35.860Z,103080.19
2022-11-29T08:01:03.063Z,103094.31
2022-11-29T08:03:29.854Z,103053.38
2022-11-29T08:05:56.568Z,103136.25
2022-11-29T08:08:22.949Z,103186.63
2022-11-29T08:10:49.467Z,103127.97
2022-11-29T08:13:15.845Z,103231.03
2022-11-29T08:15:45.959Z,103151.00
2022-11-29T08:18:12.796Z,103150.59
2022-11-29T08:20:39.612Z,103204.91
2022-11-29T08:23:06.063Z,103164.94
2022-11-29T08:25:32.457Z,103163.03
2022-11-29T08:27:58.925Z,103210.09
2022-11-29T08:30:25.348Z,103158.66
2022-11-29T08:32:52.789Z,103232.38
2022-11-29T08:35:21.199Z,103186.34
2022-11-29T08:37:47.887Z,103177.25
2022-11-29T08:40:15.247Z,103174.81
2022-11-29T08:42:41.896Z,103219.91
2022-11-29T08:45:09.068Z,103204.88
2022-11-29T08:47:36.105Z,103215.88
2022-11-29T08:50:13.883Z,103199.53
2022-11-29T08:52:45.004Z,103244.06
2022-11-29T08:55:11.555Z,103185.72
2022-11-29T08:57:40.245Z,103230.91
2022-11-29T09:00:07.683Z,103230.75
2022-11-29T09:02:34.169Z,103238.22
2022-11-29T09:05:00.690Z,103211.09
2022-11-29T09:07:27.160Z,103292.03
2022-11-29T09:09:53.623Z,103230.03
2022-11-29T09:12:20.061Z,103284.41
2022-11-29T09:14:46.696Z,103278.94
2022-11-29T09:17:13.341Z,103281.03
2022-11-29T09:19:39.765Z,103269.34
2022-11-29T09:22:06.232Z,103279.78
2022-11-29T09:24:33.809Z,103280.41
2022-11-29T09:27:00.324Z,103258.91
2022-11-29T09:29:26.735Z,103272.47
2022-11-29T09:31:53.253Z,103282.47
2022-11-29T09:34:19.658Z,103285.25
2022-11-29T09:36:46.061Z,103266.81
2022-11-29T09:39:12.494Z,103251.13
2022-11-29T09:41:51.377Z,103196.38
2022-11-29T09:44:55.905Z,103260.56
2022-11-29T09:47:51.860Z,103261.28
2022-11-29T09:50:38.044Z,103269.03
2022-11-29T09:53:33.739Z,103273.97
2022-11-29T09:56:28.721Z,103292.38
2022-11-29T09:59:02.594Z,103265.81
2022-11-29T10:01:37.468Z,103275.31
2022-11-29T10:04:10.212Z,103229.38
2022-11-29T10:06:41.999Z,103242.91
2022-11-29T10:09:17.011Z,103229.91
2022-11-29T10:12:19.834Z,103268.25
2022-11-29T10:15:00.176Z,103213.72
2022-11-29T10:17:44.899Z,103276.69
2022-11-29T10:20:17.754Z,103275.88
2022-11-29T10:23:06.653Z,103219.38
2022-11-29T10:25:44.112Z,103241.19
2022-11-29T10:28:15.851Z,103287.88
2022-11-29T10:30:43.429Z,103295.47
2022-11-29T10:33:35.085Z,103335.97
2022-11-29T10:36:37.504Z,103330.09
2022-11-29T10:39:14.462Z,103335.69
2022-11-29T10:41:41.440Z,103294.03
2022-11-29T10:44:13.543Z,103302.22
2022-11-29T10:46:40.259Z,103375.19
2022-11-29T10:49:13.193Z,103366.03
2022-11-29T10:51:39.604Z,103346.84
2022-11-29T10:54:44.120Z,103373.56
2022-11-29T10:57:18.926Z,103306.63
2022-11-29T11:00:02.029Z,103325.34
2022-11-29T11:02:28.757Z,103276.44
2022-11-29T11:04:55.396Z,103223.06
2022-11-29T11:07:36.228Z,103222.69
2022-11-29T11:10:22.012Z,103194.28
2022-11-29T11:13:21.570Z,103146.06
2022-11-29T11:15:48.246Z,103097.69
2022-11-29T11:18:23.856Z,103041.59
2022-11-29T11:20:57.077Z,103021.78
2022-11-29T11:23:30.479Z,102965.69
2022-11-29T11:26:01.301Z,102931.22
2022-11-29T11:28:42.257Z,102946.72
2022-11-29T11:31:10.940Z,102893.69
2022-11-29T11:33:45.098Z,102883.91
2022-11-29T11:36:22.889Z,102876.22
2022-11-29T11:38:52.100Z,102897.03
2022-11-29T11:41:23.449Z,102890.63
2022-11-29T11:43:53.155Z,102841.66
2022-11-29T11:46:20.005Z,102854.38
2022-11-29T11:48:47.120Z,102842.94
2022-11-29T11:51:25.380Z,102824.59
2022-11-29T11:53:56.545Z,102827.09
2022-11-29T11:56:24.129Z,102839.09
2022-11-29T11:58:55.155Z,102816.09
2022-11-29T12:01:37.986Z,102827.34
2022-11-29T12:04:27.296Z,102822.09
2022-11-29T12:06:59.220Z,102800.34
2022-11-29T12:09:43.437Z,102750.34
2022-11-29T12:12:19.463Z,102772.84
2022-11-29T12:14:51.922Z,102757.06
2022-11-29T12:17:27.929Z,102688.94
2022-11-29T12:20:16.843Z,102742.28
2022-11-29T12:23:01.861Z,102725.41
2022-11-29T12:25:34.957Z,102666.75
2022-11-29T12:28:01.519Z,102659.16
2022-11-29T12:30:28.094Z,102695.78
2022-11-29T12:33:06.251Z,102653.19
2022-11-29T12:36:05.193Z,102687.97
2022-11-29T12:38:43.649Z,102669.28
2022-11-29T12:41:31.214Z,102662.91
2022-11-29T12:44:03.412Z,102644.94
2022-11-29T12:46:30.865Z,102642.34
2022-11-29T12:49:22.867Z,102627.03
2022-11-29T12:52:21.655Z,102623.97
2022-11-29T12:55:06.515Z,102620.63
2022-11-29T12:57:50.915Z,102601.84
2022-11-29T13:00:19.913Z,102594.09
2022-11-29T13:02:58.792Z,102592.69
2022-11-29T13:05:40.478Z,102589.81
2022-11-29T13:08:22.573Z,102557.66
2022-11-29T13:11:01.988Z,102505.31
2022-11-29T13:14:20.302Z,102542.38
2022-11-29T13:16:58.613Z,102480.44
2022-11-29T13:19:34.990Z,102414.03
2022-11-29T13:22:21.135Z,102401.03
2022-11-29T13:24:52.247Z,102374.53
2022-11-29T13:27:24.833Z,102407.78
2022-11-29T13:29:51.462Z,102349.09
2022-11-29T13:32:45.764Z,102372.59
2022-11-29T13:35:30.151Z,102361.66
2022-11-29T13:38:21.201Z,102311.09
2022-11-29T13:41:04.431Z,102337.06
2022-11-29T13:43:38.598Z,102336.59
2022-11-29T13:46:28.076Z,102339.84
2022-11-29T13:48:55.208Z,102292.13
2022-11-29T13:51:38.607Z,102334.44
2022-11-29T13:54:07.500Z,102306.53
2022-11-29T13:56:42.936Z,102293.97
2022-11-29T13:59:22.448Z,102301.72
2022-11-29T14:01:51.450Z,102236.16
2022-11-29T14:04:30.197Z,102267.31
2022-11-29T14:07:04.959Z,102279.63
2022-11-29T14:09:37.500Z,102234.94
2022-11-29T14:12:19.247Z,102245.78
2022-11-29T14:15:00.305Z,102257.06
2022-11-29T14:17:26.687Z,102253.13
2022-11-29T14:20:22.243Z,102252.97
2022-11-29T14:23:06.614Z,102219.50
2022-11-29T14:25:51.689Z,102200.06
2022-11-29T14:28:21.539Z,102239.56
2022-11-29T14:31:34.016Z,102238.09
2022-11-29T14:34:08.426Z,102221.28
2022-11-29T14:36:41.073Z,102229.28
2022-11-29T14:39:18.756Z,102224.25
2022-11-29T14:41:51.149Z,102226.69
2022-11-29T14:44:25.457Z,102201.09
2022-11-29T14:47:06.632Z,102223.31
2022-11-29T14:49:42.360Z,102217.41
2022-11-29T14:52:15.462Z,102217.53
2022-11-29T14:55:17.354Z,102213.31
2022-11-29T14:57:53.405Z,102225.72
2022-11-29T15:00:38.108Z,102227.28
2022-11-29T15:03:12.817Z,102220.63
2022-11-29T15:06:14.706Z,102222.47
2022-11-29T15:08:55.570Z,102220.63
2022-11-29T15:11:30.434Z,102170.91
2022-11-29T15:14:19.400Z,102199.72
2022-11-29T15:16:58.028Z,102222.09
2022-11-29T15:19:24.381Z,102222.25
2022-11-29T15:22:21.003Z,102229.94
2022-11-29T15:25:10.767Z,102194.91
2022-11-29T15:27:40.137Z,102240.84
2022-11-29T15:30:40.322Z,102247.63
2022-11-29T15:33:18.511Z,102244.28
2022-11-29T15:35:50.798Z,102232.66
2022-11-29T15:38:18.816Z,102261.09
2022-11-29T15:40:51.973Z,102204.78
2022-11-29T15:43:35.380Z,102216.28
2022-11-29T15:46:02.256Z,102274.75
2022-11-29T15:48:31.307Z,102284.06
2022-11-29T15:50:57.825Z,102255.38
2022-11-29T15:53:31.132Z,102299.03
2022-11-29T15:56:00.281Z,102241.22
2022-11-29T15:58:29.060Z,102291.50
2022-11-29T16:00:57.864Z,102285.41
2022-11-29T16:03:28.472Z,102301.44
2022-11-29T16:06:21.603Z,102284.78
2022-11-29T16:08:49.711Z,102291.59
2022-11-29T16:11:20.447Z,102257.38
2022-11-29T16:14:26.750Z,102303.75
2022-11-29T16:16:56.580Z,102248.72
2022-11-29T16:19:34.168Z,102296.16
2022-11-29T16:22:12.618Z,102293.91
2022-11-29T16:24:45.586Z,102290.78
2022-11-29T16:27:12.735Z,102282.00
2022-11-29T16:29:44.103Z,102279.00
2022-11-29T16:32:30.100Z,102254.13
2022-11-29T16:35:06.074Z,102276.31
2022-11-29T16:37:40.091Z,102267.94
2022-11-29T16:40:18.912Z,102240.63
2022-11-29T16:43:13.820Z,102295.03
2022-11-29T16:45:41.765Z,102296.09
2022-11-29T16:48:23.382Z,102301.00
2022-11-29T16:51:11.390Z,102311.06
2022-11-29T16:53:39.856Z,102305.25
2022-11-29T16:56:11.209Z,102317.53
2022-11-29T16:59:17.052Z,102264.47
2022-11-29T17:01:31.086Z,102305.47
2022-11-29T17:03:58.917Z,102313.22
2022-11-29T17:06:26.848Z,102271.56
2022-11-29T17:08:55.614Z,102305.66
2022-11-29T17:11:22.312Z,102307.53
2022-11-29T17:13:49.398Z,102314.38
2022-11-29T17:16:20.705Z,102309.22
2022-11-29T17:18:47.399Z,102311.41
2022-11-29T17:21:20.671Z,102324.03
2022-11-29T17:23:47.150Z,102318.94
2022-11-29T17:26:13.778Z,102267.44
2022-11-29T17:28:41.223Z,102329.06
2022-11-29T17:31:12.538Z,102339.97
2022-11-29T17:33:39.002Z,102338.78
2022-11-29T17:36:10.854Z,102344.50
2022-11-29T17:38:38.083Z,102299.88
2022-11-29T17:41:08.722Z,102365.16
2022-11-29T17:43:36.028Z,102377.56
2022-11-29T17:46:09.474Z,102388.44
2022-11-29T17:48:36.299Z,102351.66
2022-11-29T17:51:02.754Z,102399.41
2022-11-29T17:53:30.540Z,102433.69
2022-11-29T17:56:05.850Z,102421.72
2022-11-29T17:58:32.790Z,102385.91
2022-11-29T18:01:14.045Z,102440.09
2022-11-29T18:03:42.290Z,102418.81
2022-11-29T18:06:13.942Z,102403.91
2022-11-29T18:08:42.669Z,102447.25
2022-11-29T18:11:12.380Z,102466.66
2022-11-29T18:13:39.360Z,102483.06
2022-11-29T18:16:12.022Z,102470.63
2022-11-29T18:18:39.134Z,102494.69
2022-11-29T18:21:07.876Z,102465.47
2022-11-29T18:23:36.720Z,102537.72
2022-11-29T18:26:10.275Z,102502.75
2022-11-29T18:28:38.522Z,102555.78
2022-11-29T18:31:14.933Z,102565.09
2022-11-29T18:33:43.155Z,102560.97
2022-11-29T18:36:12.406Z,102566.28
2022-11-29T18:38:41.167Z,102610.44
2022-11-29T18:41:09.589Z,102641.56
2022-11-29T18:43:37.297Z,102663.97
2022-11-29T18:46:10.847Z,102674.16
2022-11-29T18:48:37.973Z,102664.66
2022-11-29T18:51:06.624Z,102734.41
2022-11-29T18:53:37.149Z,102769.19
2022-11-29T18:56:08.508Z,102740.66
2022-11-29T18:58:34.926Z,102783.91
2022-11-29T19:01:18.653Z,102789.19
2022-11-29T19:03:47.565Z,102765.28
2022-11-29T19:06:16.723Z,102816.63
2022-11-29T19:08:43.677Z,102786.56
2022-11-29T19:11:13.437Z,102855.88
2022-11-29T19:13:40.767Z,102859.66
2022-11-29T19:16:12.752Z,102873.59
2022-11-29T19:18:39.627Z,102847.06
2022-11-29T19:21:12.781Z,102899.94
2022-11-29T19:23:40.072Z,102892.31
2022-11-29T19:26:08.779Z,102889.66
2022-11-29T19:28:39.043Z,102861.81
2022-11-29T19:31:06.156Z,102894.66
2022-11-29T19:33:36.570Z,102914.19
2022-11-29T19:36:20.647Z,102871.50
2022-11-29T19:38:52.981Z,102862.41
2022-11-29T19:41:22.513Z,102896.13
2022-11-29T19:43:49.735Z,102921.59
2022-11-29T19:46:18.982Z,102955.53
2022-11-29T19:48:45.928Z,102943.44
2022-11-29T19:51:14.270Z,102962.56
2022-11-29T19:53:40.710Z,102913.56
2022-11-29T19:56:09.201Z,102928.69
2022-11-29T19:58:35.595Z,102944.84
2022-11-29T20:01:13.398Z,102984.25
2022-11-29T20:03:40.394Z,102981.09
2022-11-29T20:06:08.637Z,102968.47
2022-11-29T20:08:36.270Z,102939.72
2022-11-29T20:11:11.117Z,102942.94
2022-11-29T20:13:39.027Z,102968.41
2022-11-29T20:16:08.715Z,102956.94
2022-11-29T20:18:37.026Z,102984.50
2022-11-29T20:21:08.715Z,102983.16
2022-11-29T20:23:35.184Z,102938.41
2022-11-29T20:26:01.625Z,102975.63
2022-11-29T20:28:28.310Z,102967.66
2022-11-29T20:30:54.862Z,102970.88
2022-11-29T20:33:25.345Z,102967.78
2022-11-29T20:36:12.540Z,102970.50
2022-11-29T20:39:00.211Z,102939.16
2022-11-29T20:41:41.391Z,102941.16
2022-11-29T20:44:12.991Z,102984.94
2022-11-29T20:46:39.543Z,102952.56
2022-11-29T20:49:06.853Z,102952.25
2022-11-29T20:51:44.242Z,102933.88
2022-11-29T20:54:11.875Z,102943.38
2022-11-29T20:56:38.288Z,102944.94
2022-11-29T20:59:04.738Z,103004.34
2022-11-29T21:01:31.246Z,103012.06
2022-11-29T21:03:57.772Z,103004.19
2022-11-29T21:06:24.223Z,103003.16
2022-11-29T21:08:50.649Z,103007.66
2022-11-29T21:11:17.426Z,103027.38
2022-11-29T21:13:44.380Z,103040.13
2022-11-29T21:16:12.392Z,103027.19
2022-11-29T21:18:39.454Z,103026.03
2022-11-29T21:21:39.682Z,103028.94
2022-11-29T21:24:21.349Z,103035.69
2022-11-29T21:26:51.134Z,103037.78
2022-11-29T21:29:20.002Z,103041.31
2022-11-29T21:31:49.155Z,103049.66
2022-11-29T21:34:15.641Z,103049.31
2022-11-29T21:36:44.310Z,103007.25
2022-11-29T21:39:15.828Z,103079.31
2022-11-29T21:41:42.526Z,103071.41
2022-11-29T21:44:09.127Z,103026.19
2022-11-29T21:46:35.971Z,103084.84
2022-11-29T21:49:02.688Z,103084.97
2022-11-29T21:51:29.097Z,103090.41
2022-11-29T21:53:55.540Z,103099.06
2022-11-29T21:56:21.952Z,103050.25
2022-11-29T21:58:48.390Z,103104.31
2022-11-29T22:01:18.197Z,103094.34
2022-11-29T22:03:45.246Z,103050.03
2022-11-29T22:06:14.141Z,103099.66
2022-11-29T22:08:41.613Z,103147.75
2022-11-29T22:11:10.853Z,103145.75
2022-11-29T22:13:38.659Z,103136.09
2022-11-29T22:16:09.776Z,103196.13
2022-11-29T22:18:36.517Z,103216.63
2022-11-29T22:21:05.568Z,103232.44
2022-11-29T22:23:32.176Z,103235.16
2022-11-29T22:26:06.436Z,103187.72
2022-11-29T22:28:34.000Z,103236.81
2022-11-29T22:31:11.300Z,103250.38
2022-11-29T22:33:38.600Z,103258.88
2022-11-29T22:36:10.594Z,103267.47
2022-11-29T22:38:37.108Z,103287.56
2022-11-29T22:41:11.691Z,103243.88
2022-11-29T22:43:39.463Z,103293.09
2022-11-29T22:46:26.746Z,103297.13
2022-11-29T22:48:55.147Z,103314.41
2022-11-29T22:51:30.389Z,103312.03
2022-11-29T22:53:59.087Z,103298.09
2022-11-29T22:56:31.606Z,103247.78
2022-11-29T22:58:58.645Z,103281.75
2022-11-29T23:01:27.408Z,103277.53
2022-11-29T23:03:56.708Z,103266.56
2022-11-29T23:06:31.377Z,103248.28
2022-11-29T23:09:03.286Z,103264.13
2022-11-29T23:11:30.818Z,103202.50
2022-11-29T23:13:57.293Z,103250.91
2022-11-29T23:16:28.663Z,103215.59
2022-11-29T23:18:57.251Z,103204.63
2022-11-29T23:21:26.789Z,103156.72
2022-11-29T23:23:56.590Z,103141.16
2022-11-29T23:26:23.332Z,103183.63
2022-11-29T23:28:50.431Z,103128.41
2022-11-29T23:31:17.576Z,103156.72
2022-11-29T23:33:44.212Z,103155.31
2022-11-29T23:36:11.594Z,103122.06
2022-11-29T23:38:38.762Z,103138.56
2022-11-29T23:41:06.974Z,103157.44
2022-11-29T23:43:36.193Z,103156.63
2022-11-29T23:46:07.674Z,103133.03
2022-11-29T23:48:34.242Z,103169.94
2022-11-29T23:51:00.758Z,103159.91
2022-11-29T23:53:27.638Z,103169.13
2022-11-29T23:55:57.917Z,103117.16
2022-11-29T23:58:24.902Z,103130.69
